Houston, Texas
Traffic Map
Current Weather Conditions
Houston, Texas
Few Clouds
Few Clouds
80°
Feels Like: 81°
Wind Chill: 80° Ceiling: Unl
Heat Index: 81° Visibility: 10mi
Dew Point: 61° Wind: 13mph
Humidity: 52% Direction: 160° (SSE)
Pressure: 30.16in Gusts: 0mph
Raw Report DataKIAH 231653Z 16011KT 10SM FEW035 FEW250 27/16 A3016 RMK AO2 SLP211 T02670161
Traffic Incident Summary
Active as of:
Severity:
Category:
InformationThere was an issue retrieving the traffic information for this location. Please try a different location or try again shortly.
Advertisements
Track Severe Weather on mobile